Time;durP1;ratioP1;P1;durP2;ratioP2;P2;SDS_P1;SDS_P2;PMS_P1;PMS_P2;Temp;Humidity;BMP_temperature;BMP_pressure;BME280_temperature;BME280_humidity;BME280_pressure;Samples;Min_cycle;Max_cycle;Signal;HPM_P1;HPM_P2
2021/04/13 00:02:41;;;;;;;7.65;5.22;;;20.60;33.00;;;;;;4899906;29;20039;-72
2021/04/13 00:05:11;;;;;;;5.75;4.65;;;20.50;33.00;;;;;;4860440;29;20046;-72
2021/04/13 00:07:38;;;;;;;7.65;4.65;;;20.50;32.90;;;;;;4865994;29;20045;-72
2021/04/13 00:10:11;;;;;;;6.57;5.10;;;20.50;32.90;;;;;;4838725;29;20037;-72
2021/04/13 00:12:37;;;;;;;6.68;4.32;;;20.50;32.90;;;;;;4864658;29;20025;-73
2021/04/13 00:15:13;;;;;;;8.80;4.60;;;20.50;32.80;;;;;;4847407;29;20109;-73
2021/04/13 00:17:40;;;;;;;8.90;5.55;;;20.50;32.80;;;;;;4852066;29;20045;-73
2021/04/13 00:20:40;;;;;;;5.30;4.78;;;20.50;32.80;;;;;;4859943;29;20095;-72
2021/04/13 00:23:07;;;;;;;8.68;5.07;;;20.50;32.80;;;;;;4848109;29;20049;-72
2021/04/13 00:25:36;;;;;;;9.10;5.00;;;20.50;32.80;;;;;;4846522;29;20089;-72
2021/04/13 00:28:02;;;;;;;7.95;4.85;;;20.50;32.70;;;;;;4839830;29;20045;-72
2021/04/13 00:30:38;;;;;;;8.82;6.00;;;20.50;32.70;;;;;;4842754;29;20044;-73
2021/04/13 00:33:04;;;;;;;6.00;4.63;;;20.40;32.60;;;;;;4838973;29;20556;-72
2021/04/13 00:35:32;;;;;;;7.18;4.95;;;20.40;32.60;;;;;;4865862;29;20049;-72
2021/04/13 00:38:26;;;;;;;6.68;5.22;;;20.40;32.50;;;;;;4894555;29;20078;-78
2021/04/13 00:41:06;;;;;;;8.10;5.32;;;20.50;33.10;;;;;;4898870;29;20035;-78
2021/04/13 00:43:32;;;;;;;5.78;4.70;;;20.50;32.50;;;;;;4966726;28;20478;-78
2021/04/13 00:45:57;;;;;;;8.18;5.03;;;20.50;32.60;;;;;;4986868;28;20030;-77
2021/04/13 00:48:28;;;;;;;7.93;5.22;;;20.40;32.50;;;;;;4979619;28;20538;-78
2021/04/13 00:50:55;;;;;;;6.80;5.25;;;20.40;32.50;;;;;;4975578;28;20018;-78
2021/04/13 00:53:23;;;;;;;7.40;5.93;;;20.40;32.50;;;;;;4992081;28;20027;-78
2021/04/13 00:55:56;;;;;;;5.95;4.43;;;20.40;32.50;;;;;;4979648;28;20109;-75
2021/04/13 00:58:24;;;;;;;7.90;4.75;;;20.40;32.60;;;;;;4976225;28;20118;-77
2021/04/13 01:00:59;;;;;;;6.00;3.97;;;20.40;32.50;;;;;;5004307;28;20022;-77
2021/04/13 01:03:28;;;;;;;6.47;5.40;;;20.30;32.40;;;;;;4983309;28;20034;-77
2021/04/13 01:05:56;;;;;;;4.22;3.70;;;20.30;32.40;;;;;;4987914;28;20022;-78
2021/04/13 01:08:35;;;;;;;3.90;2.72;;;20.30;32.40;;;;;;4982526;28;20026;-78
2021/04/13 01:11:04;;;;;;;5.82;3.92;;;20.30;32.50;;;;;;4962885;28;20023;-78
2021/04/13 01:13:51;;;;;;;8.30;4.75;;;20.30;32.50;;;;;;4992827;28;20023;-78
2021/04/13 01:16:19;;;;;;;6.38;5.18;;;20.30;32.40;;;;;;5007777;28;20407;-78
2021/04/13 01:18:49;;;;;;;6.05;4.60;;;20.30;32.40;;;;;;4990185;28;20031;-78
2021/04/13 01:21:24;;;;;;;7.45;4.28;;;20.20;32.50;;;;;;4991327;28;20065;-78
2021/04/13 01:23:54;;;;;;;6.95;4.40;;;20.20;32.50;;;;;;4992658;28;20037;-78
2021/04/13 01:26:20;;;;;;;6.78;4.18;;;20.20;32.40;;;;;;4973558;28;20494;-78
2021/04/13 01:28:45;;;;;;;4.03;3.63;;;20.20;32.40;;;;;;5009586;28;20030;-78
2021/04/13 01:31:42;;;;;;;6.70;4.13;;;20.20;32.50;;;;;;4969568;28;20030;-78
2021/04/13 01:34:20;;;;;;;5.38;3.80;;;20.20;32.50;;;;;;4968195;28;20074;-78
2021/04/13 01:37:00;;;;;;;5.55;4.25;;;20.10;32.40;;;;;;4994781;28;20027;-79
2021/04/13 01:39:26;;;;;;;3.90;3.50;;;20.10;32.40;;;;;;5002435;28;20528;-79
2021/04/13 01:44:28;;;;;;;6.35;3.85;;;20.10;32.50;;;;;;4973395;28;20030;-78
2021/04/13 01:46:54;;;;;;;6.20;4.18;;;20.10;32.40;;;;;;4991898;28;20359;-78
2021/04/13 01:49:21;;;;;;;4.22;3.83;;;20.10;32.40;;;;;;4962045;28;20045;-78
2021/04/13 01:51:47;;;;;;;3.45;2.80;;;20.10;32.50;;;;;;4994197;28;20037;-77
2021/04/13 01:54:14;;;;;;;6.25;4.68;;;20.10;32.50;;;;;;4987694;28;20440;-72
2021/04/13 01:57:10;;;;;;;4.82;3.83;;;20.00;32.30;;;;;;4960173;28;20077;-72
2021/04/13 01:59:38;;;;;;;4.70;3.88;;;20.00;32.30;;;;;;5014420;28;20018;-72
2021/04/13 02:02:08;;;;;;;7.30;4.95;;;20.10;32.40;;;;;;4982951;28;20117;-73
2021/04/13 02:04:52;;;;;;;5.05;4.00;;;20.00;32.40;;;;;;4954401;28;20030;-73
2021/04/13 02:10:00;;;;;;;5.95;3.67;;;20.10;32.30;;;;;;4995354;28;20022;-74
2021/04/13 02:12:29;;;;;;;6.72;4.25;;;20.10;32.30;;;;;;4972517;28;20027;-74
2021/04/13 02:15:01;;;;;;;5.22;3.95;;;20.10;32.30;;;;;;4975513;28;20027;-72
2021/04/13 02:17:30;;;;;;;6.30;4.55;;;20.00;32.20;;;;;;4994402;28;20499;-72
2021/04/13 02:19:56;;;;;;;3.63;3.33;;;20.10;32.90;;;;;;4968476;28;20049;-73
2021/04/13 02:22:22;;;;;;;6.93;4.38;;;20.00;32.30;;;;;;4984342;28;20030;-72
2021/04/13 02:24:49;;;;;;;7.20;4.53;;;20.00;32.10;;;;;;4966650;28;20085;-72
2021/04/13 02:27:17;;;;;;;6.63;5.32;;;20.00;32.10;;;;;;4979644;28;20096;-72
2021/04/13 02:29:48;;;;;;;3.78;3.28;;;20.00;32.10;;;;;;4992935;28;20035;-74
2021/04/13 02:32:28;;;;;;;5.68;4.40;;;20.00;32.20;;;;;;4966148;28;20031;-72
2021/04/13 02:35:13;;;;;;;5.47;4.00;;;20.00;32.10;;;;;;4993036;28;20033;-72
2021/04/13 02:38:01;;;;;;;4.27;3.87;;;20.00;32.10;;;;;;4984303;28;20021;-72
2021/04/13 02:40:55;;;;;;;7.22;4.15;;;20.00;32.20;;;;;;4994207;28;20037;-72
2021/04/13 02:43:30;;;;;;;6.03;4.38;;;20.00;32.10;;;;;;4961652;28;20034;-72
2021/04/13 02:45:58;;;;;;;4.68;3.90;;;20.00;32.10;;;;;;5001415;28;20068;-72
2021/04/13 02:48:32;;;;;;;3.00;2.70;;;19.90;32.10;;;;;;4972835;28;20089;-72
2021/04/13 02:51:05;;;;;;;9.05;4.68;;;19.90;32.20;;;;;;4976031;28;20077;-72
2021/04/13 02:53:45;;;;;;;6.20;4.07;;;19.90;32.10;;;;;;4970881;28;20062;-72
2021/04/13 02:56:14;;;;;;;5.25;4.13;;;19.90;32.10;;;;;;4964691;28;20464;-72
2021/04/13 02:59:28;;;;;;;7.70;4.88;;;19.90;32.20;;;;;;4978234;28;20042;-72
2021/04/13 03:01:57;;;;;;;6.07;4.22;;;19.90;32.10;;;;;;4933388;29;20069;-72
2021/04/13 03:04:22;;;;;;;4.53;4.13;;;19.90;32.10;;;;;;4927436;29;20203;-72
2021/04/13 03:06:52;;;;;;;5.13;4.43;;;19.80;32.10;;;;;;4919617;29;20044;-72
2021/04/13 03:09:19;;;;;;;5.55;4.50;;;19.80;32.10;;;;;;4929662;29;20417;-72
2021/04/13 03:11:57;;;;;;;5.95;4.90;;;19.80;32.10;;;;;;4933999;29;20119;-72
2021/04/13 03:14:22;;;;;;;4.43;4.00;;;19.80;32.10;;;;;;4939691;29;20036;-72
2021/04/13 03:16:49;;;;;;;7.00;4.35;;;19.80;32.20;;;;;;4941870;29;20027;-72
2021/04/13 03:19:17;;;;;;;8.55;4.88;;;19.80;32.10;;;;;;4917317;29;20799;-72
2021/04/13 03:21:49;;;;;;;5.43;4.88;;;19.80;32.10;;;;;;4931889;29;20027;-72
2021/04/13 03:24:17;;;;;;;2.72;2.53;;;19.80;32.10;;;;;;4923814;29;20035;-72
2021/04/13 03:26:57;;;;;;;5.57;4.47;;;19.80;32.20;;;;;;4920021;29;20098;-72
2021/04/13 03:29:33;;;;;;;8.68;4.65;;;19.80;32.10;;;;;;4920207;29;20031;-72
2021/04/13 03:32:00;;;;;;;5.20;4.38;;;19.70;32.70;;;;;;4919576;29;20043;-72
2021/04/13 03:34:25;;;;;;;9.05;4.47;;;19.70;32.10;;;;;;4918440;29;20036;-72
2021/04/13 03:36:52;;;;;;;8.23;4.85;;;19.70;32.00;;;;;;4932028;29;20029;-71
2021/04/13 03:39:44;;;;;;;7.53;6.10;;;19.70;32.10;;;;;;4960401;28;20158;-71
2021/04/13 03:42:25;;;;;;;5.43;3.78;;;19.70;32.10;;;;;;4992071;28;20045;-71
2021/04/13 03:44:51;;;;;;;10.40;4.75;;;19.70;32.10;;;;;;4976818;28;20494;-71
2021/04/13 03:47:21;;;;;;;8.32;5.40;;;19.70;32.00;;;;;;4961447;28;20098;-72
2021/04/13 03:49:46;;;;;;;5.30;4.53;;;19.70;32.00;;;;;;4976930;28;20033;-72
2021/04/13 03:52:32;;;;;;;6.97;5.28;;;19.70;32.70;;;;;;4972992;28;20035;-72
2021/04/13 03:55:10;;;;;;;5.28;4.30;;;19.70;32.00;;;;;;4991392;28;20034;-80
2021/04/13 03:57:37;;;;;;;7.18;5.20;;;19.70;31.90;;;;;;4963268;28;20035;-80
2021/04/13 04:00:06;;;;;;;4.93;4.00;;;19.70;31.90;;;;;;5007712;28;20073;-80
2021/04/13 04:02:32;;;;;;;0.00;0.00;;;19.70;31.80;;;;;;4978396;28;20030;-80
2021/04/13 04:05:15;;;;;;;6.72;5.35;;;19.70;31.80;;;;;;4992178;28;20029;-71
2021/04/13 04:08:02;;;;;;;0.88;0.63;;;19.70;31.80;;;;;;4991713;28;20027;-71
2021/04/13 04:10:45;;;;;;;6.85;4.93;;;19.70;31.70;;;;;;4987432;28;20379;-71
2021/04/13 04:13:17;;;;;;;0.20;0.20;;;19.70;31.80;;;;;;4977375;28;20034;-71
2021/04/13 04:15:44;;;;;;;5.60;4.80;;;19.70;31.70;;;;;;4994725;28;20034;-71
2021/04/13 04:18:34;;;;;;;0.10;0.10;;;19.70;31.70;;;;;;4976063;28;20046;-71
2021/04/13 04:21:02;;;;;;;6.90;5.82;;;19.60;31.60;;;;;;4990077;28;20066;-71
2021/04/13 04:23:32;;;;;;;6.60;4.65;;;19.70;31.60;;;;;;4991778;28;20113;-72
2021/04/13 04:26:04;;;;;;;4.63;4.10;;;19.60;31.60;;;;;;4990495;28;20030;-71
2021/04/13 04:28:35;;;;;;;5.85;4.88;;;19.70;31.50;;;;;;5008537;28;20508;-80
2021/04/13 04:31:33;;;;;;;0.00;0.00;;;19.70;31.60;;;;;;4975433;28;20034;-80
2021/04/13 04:33:59;;;;;;;6.43;5.00;;;19.60;31.50;;;;;;4973690;28;20030;-80
2021/04/13 04:39:47;;;;;;;10.57;5.38;;;19.60;31.60;;;;;;4993045;28;20052;-78
2021/04/13 04:42:27;;;;;;;0.28;0.28;;;19.60;31.60;;;;;;4990065;28;20514;-79
2021/04/13 04:45:34;;;;;;;6.10;4.53;;;19.60;31.50;;;;;;4992957;28;20518;-78
2021/04/13 04:48:00;;;;;;;10.50;6.40;;;19.60;31.60;;;;;;4933165;29;20031;-79
2021/04/13 04:50:26;;;;;;;4.85;4.35;;;19.50;31.60;;;;;;4928414;29;20032;-79
2021/04/13 04:52:51;;;;;;;2.13;0.47;;;19.50;31.60;;;;;;4928693;29;20035;-79
2021/04/13 04:55:17;;;;;;;5.13;4.25;;;19.50;31.50;;;;;;4918614;29;20171;-78
2021/04/13 04:57:42;;;;;;;1.90;0.75;;;19.50;31.60;;;;;;4932550;29;20041;-78
2021/04/13 05:00:09;;;;;;;5.95;4.90;;;19.50;31.60;;;;;;4931272;29;20428;-78
2021/04/13 05:02:34;;;;;;;0.20;0.10;;;19.50;31.60;;;;;;4916123;29;20126;-79
2021/04/13 05:05:01;;;;;;;8.88;5.93;;;19.50;31.50;;;;;;4916481;29;20164;-79
2021/04/13 05:07:26;;;;;;;4.70;3.85;;;19.40;31.60;;;;;;4918028;29;20032;-73
2021/04/13 05:09:52;;;;;;;0.52;0.20;;;19.40;31.80;;;;;;4916389;29;20697;-73
2021/04/13 05:12:18;;;;;;;6.00;4.97;;;19.40;31.80;;;;;;4932659;29;20036;-72
2021/04/13 05:14:43;;;;;;;0.05;0.05;;;19.50;32.10;;;;;;4914550;29;20044;-73
2021/04/13 05:17:09;;;;;;;7.50;6.20;;;19.50;32.10;;;;;;4931029;29;20044;-73
2021/04/13 05:19:35;;;;;;;0.47;0.47;;;19.50;32.20;;;;;;4915661;29;20555;-73
2021/04/13 05:22:00;;;;;;;0.70;0.25;;;19.60;32.10;;;;;;4958532;28;20045;-73
2021/04/13 05:24:26;;;;;;;6.22;5.35;;;19.60;32.10;;;;;;4991659;28;20019;-72
2021/04/13 05:26:51;;;;;;;0.20;0.20;;;19.70;32.10;;;;;;4992036;28;20030;-73
2021/04/13 05:29:17;;;;;;;8.63;6.60;;;19.80;31.90;;;;;;4993551;28;20055;-72
2021/04/13 05:31:43;;;;;;;13.18;5.68;;;19.80;31.90;;;;;;4990674;28;20109;-72
2021/04/13 05:34:10;;;;;;;0.28;0.28;;;19.90;31.90;;;;;;4990051;28;20018;-72
2021/04/13 05:36:38;;;;;;;6.55;5.45;;;19.90;31.80;;;;;;4989541;28;20593;-71
2021/04/13 05:39:04;;;;;;;0.20;0.20;;;20.00;32.50;;;;;;4973222;28;20037;-71
2021/04/13 05:41:30;;;;;;;0.00;0.00;;;20.10;31.70;;;;;;5006017;28;20438;-73
2021/04/13 05:43:56;;;;;;;7.57;5.47;;;20.10;31.70;;;;;;4990257;28;20049;-77
2021/04/13 05:46:24;;;;;;;0.80;0.55;;;20.20;31.70;;;;;;4994693;28;20081;-78
2021/04/13 05:48:50;;;;;;;7.18;6.28;;;20.30;31.60;;;;;;4992742;28;20018;-76
2021/04/13 05:51:15;;;;;;;3.50;1.08;;;20.30;31.50;;;;;;5001352;28;20399;-75
2021/04/13 05:53:41;;;;;;;0.10;0.10;;;20.40;31.50;;;;;;4999851;28;20038;-75
2021/04/13 05:56:07;;;;;;;0.47;0.20;;;20.40;31.40;;;;;;5007091;28;20553;-76
2021/04/13 05:58:35;;;;;;;9.10;5.72;;;20.50;31.40;;;;;;4974685;28;20033;-76
2021/04/13 06:01:03;;;;;;;2.20;0.43;;;20.50;31.30;;;;;;4980319;28;20050;-76
2021/04/13 06:03:28;;;;;;;0.20;0.20;;;20.60;31.30;;;;;;4958185;28;20129;-76
2021/04/13 06:05:55;;;;;;;0.08;0.08;;;20.60;31.20;;;;;;4975707;28;20467;-75
2021/04/13 06:08:20;;;;;;;1.42;0.45;;;20.70;31.20;;;;;;4963659;28;20394;-74
2021/04/13 06:10:46;;;;;;;0.98;0.20;;;20.70;31.10;;;;;;4990307;28;20022;-75
2021/04/13 06:13:12;;;;;;;0.20;0.10;;;20.70;31.80;;;;;;4979708;28;20105;-75
2021/04/13 06:15:38;;;;;;;0.30;0.30;;;20.80;31.10;;;;;;4998869;28;20038;-75
2021/04/13 06:18:04;;;;;;;0.82;0.25;;;20.80;31.10;;;;;;5002207;28;20042;-75
2021/04/13 06:20:30;;;;;;;0.35;0.35;;;20.90;31.00;;;;;;4974163;28;20030;-75
2021/04/13 06:22:56;;;;;;;0.57;0.45;;;20.90;31.60;;;;;;4961983;28;20030;-75
2021/04/13 06:25:26;;;;;;;0.10;0.10;;;21.00;31.00;;;;;;4978534;28;20029;-74
2021/04/13 06:28:07;;;;;;;0.30;0.15;;;21.00;30.90;;;;;;4964728;28;20490;-75
2021/04/13 06:30:32;;;;;;;0.20;0.10;;;21.00;30.90;;;;;;4977552;28;20038;-74
2021/04/13 06:33:01;;;;;;;4.00;0.28;;;21.10;30.90;;;;;;4991012;28;20029;-74
2021/04/13 06:35:28;;;;;;;0.03;0.03;;;21.10;30.90;;;;;;4992602;28;20046;-74
2021/04/13 06:37:55;;;;;;;0.10;0.10;;;21.10;30.90;;;;;;4971699;28;20061;-77
2021/04/13 06:40:47;;;;;;;0.55;0.40;;;21.10;30.90;;;;;;4958232;28;20169;-76
2021/04/13 06:43:45;;;;;;;0.65;0.30;;;21.10;31.00;;;;;;4980179;28;20030;-76
2021/04/13 06:46:33;;;;;;;1.88;0.55;;;21.10;31.00;;;;;;4897063;29;20052;-72
2021/04/13 06:49:07;;;;;;;0.20;0.20;;;21.10;31.10;;;;;;4888932;29;20131;-72
2021/04/13 06:51:56;;;;;;;0.40;0.30;;;21.10;31.10;;;;;;4890028;29;20060;-77
2021/04/13 06:54:39;;;;;;;1.13;0.60;;;21.10;31.20;;;;;;4898604;29;20553;-76
2021/04/13 06:57:17;;;;;;;0.30;0.30;;;21.10;31.30;;;;;;4890214;29;20130;-75
2021/04/13 06:59:59;;;;;;;0.30;0.20;;;21.10;31.30;;;;;;4898458;29;20141;-75
2021/04/13 07:02:48;;;;;;;0.25;0.25;;;21.10;31.40;;;;;;4905083;29;20052;-76
2021/04/13 07:05:18;;;;;;;0.63;0.50;;;21.10;31.50;;;;;;4894986;29;20451;-75
2021/04/13 07:07:57;;;;;;;0.55;0.55;;;21.10;31.50;;;;;;4896411;29;20036;-77
2021/04/13 07:10:34;;;;;;;0.30;0.30;;;21.10;31.70;;;;;;4905281;29;20048;-76
2021/04/13 07:13:06;;;;;;;0.63;0.20;;;21.10;31.70;;;;;;4892165;29;20132;-77
2021/04/13 07:15:59;;;;;;;1.15;0.60;;;21.10;31.80;;;;;;4903828;29;20116;-76
2021/04/13 07:18:32;;;;;;;0.38;0.38;;;21.00;31.70;;;;;;4899442;29;20050;-75
2021/04/13 07:21:04;;;;;;;0.73;0.60;;;21.10;31.80;;;;;;4926904;29;20048;-75
2021/04/13 07:23:58;;;;;;;0.50;0.38;;;21.10;31.80;;;;;;4967923;28;20046;-76
2021/04/13 07:26:36;;;;;;;0.45;0.40;;;21.10;31.90;;;;;;4992998;28;20026;-75
2021/04/13 07:29:13;;;;;;;0.50;0.50;;;21.00;32.00;;;;;;4976473;28;20026;-72
2021/04/13 07:31:52;;;;;;;0.90;0.47;;;21.00;32.00;;;;;;4962575;28;20058;-72
2021/04/13 07:34:19;;;;;;;0.47;0.40;;;21.10;32.00;;;;;;4970292;28;20563;-72
2021/04/13 07:40:13;;;;;;;0.10;0.10;;;21.10;32.10;;;;;;4989990;28;20072;-72
2021/04/13 07:42:48;;;;;;;2.92;0.80;;;21.10;32.20;;;;;;4961969;28;20089;-72
2021/04/13 07:45:22;;;;;;;0.68;0.68;;;21.10;32.20;;;;;;4974996;28;20030;-72
2021/04/13 07:48:14;;;;;;;1.25;0.52;;;21.00;32.30;;;;;;5005450;28;20026;-72
2021/04/13 07:50:53;;;;;;;0.25;0.22;;;21.10;32.40;;;;;;5004347;28;20018;-72
2021/04/13 07:53:34;;;;;;;2.28;1.17;;;21.10;32.30;;;;;;4993481;28;20056;-72
2021/04/13 07:56:22;;;;;;;0.50;0.30;;;21.10;32.40;;;;;;5006543;28;20061;-72
2021/04/13 07:58:58;;;;;;;0.20;0.20;;;21.10;32.40;;;;;;4989591;28;20030;-73
2021/04/13 08:01:24;;;;;;;0.43;0.38;;;21.10;32.40;;;;;;4988884;28;20617;-72
2021/04/13 08:03:51;;;;;;;0.20;0.20;;;21.20;32.40;;;;;;4962741;28;20414;-73
2021/04/13 08:06:29;;;;;;;0.85;0.32;;;21.20;32.50;;;;;;5007245;28;20057;-73
2021/04/13 08:09:15;;;;;;;2.60;0.38;;;21.20;32.50;;;;;;4994003;28;20371;-71
2021/04/13 08:12:16;;;;;;;0.38;0.38;;;21.20;32.50;;;;;;4988917;28;20576;-72
2021/04/13 08:15:14;;;;;;;0.50;0.38;;;21.20;32.50;;;;;;4980594;28;20034;-72
2021/04/13 08:18:08;;;;;;;0.40;0.40;;;21.20;32.60;;;;;;4983955;28;20030;-78
2021/04/13 08:20:36;;;;;;;1.02;0.68;;;21.20;32.50;;;;;;4916866;29;20126;-78
2021/04/13 08:23:13;;;;;;;0.10;0.10;;;21.30;33.20;;;;;;4916626;29;20067;-75
2021/04/13 08:25:43;;;;;;;1.00;0.70;;;21.30;32.50;;;;;;4915313;29;20037;-76
2021/04/13 08:28:25;;;;;;;0.40;0.32;;;21.30;32.60;;;;;;4926874;29;20156;-75
2021/04/13 08:32:49;;;;;;;2.15;0.82;;;21.30;32.60;;;;;;4888218;29;20039;-77
2021/04/13 08:33:41;;;;;;;0.73;0.50;;;21.40;32.60;;;;;;4921845;29;20500;-79
2021/04/13 08:36:29;;;;;;;1.67;1.00;;;21.40;32.60;;;;;;4931479;29;20520;-81
2021/04/13 08:38:57;;;;;;;1.10;0.70;;;21.50;32.50;;;;;;4912763;29;20063;-81
2021/04/13 08:41:28;;;;;;;1.23;0.70;;;21.50;32.40;;;;;;4915729;29;20460;-72
2021/04/13 08:44:25;;;;;;;1.00;0.40;;;21.50;32.40;;;;;;4927881;29;20495;-70
2021/04/13 08:47:02;;;;;;;0.80;0.22;;;21.60;32.40;;;;;;4921608;29;20043;-73
2021/04/13 08:49:39;;;;;;;1.10;0.70;;;21.60;32.20;;;;;;4917259;29;20107;-72
2021/04/13 08:52:23;;;;;;;1.67;0.57;;;21.70;32.10;;;;;;4901055;29;20118;-73
2021/04/13 08:54:49;;;;;;;0.50;0.45;;;21.70;32.20;;;;;;4916745;29;20028;-73
2021/04/13 08:57:18;;;;;;;1.80;0.85;;;21.80;32.20;;;;;;4932319;28;20043;-73
2021/04/13 08:59:45;;;;;;;0.47;0.40;;;21.80;32.10;;;;;;4988532;28;20030;-75
2021/04/13 09:02:21;;;;;;;4.22;1.38;;;21.80;32.00;;;;;;4975923;28;20600;-73
2021/04/13 09:04:47;;;;;;;1.35;0.60;;;21.90;32.00;;;;;;4973488;28;20065;-73
2021/04/13 09:07:26;;;;;;;1.75;0.20;;;21.90;31.90;;;;;;4956915;28;20475;-73
2021/04/13 09:10:28;;;;;;;0.63;0.20;;;22.00;31.90;;;;;;4974119;28;20030;-73
2021/04/13 09:13:20;;;;;;;2.58;0.77;;;22.00;31.80;;;;;;4987677;28;20018;-72
2021/04/13 09:16:22;;;;;;;3.30;0.88;;;22.10;31.80;;;;;;4979876;28;20517;-72
2021/04/13 09:18:49;;;;;;;2.20;0.63;;;22.10;31.70;;;;;;4992601;28;20042;-80
2021/04/13 09:21:46;;;;;;;1.17;0.45;;;22.10;31.60;;;;;;4980689;28;20022;-78
2021/04/13 09:24:23;;;;;;;1.10;0.30;;;22.20;31.60;;;;;;4981763;28;20037;-78
2021/04/13 09:27:02;;;;;;;1.75;0.45;;;22.20;31.60;;;;;;4977736;28;20460;-78
2021/04/13 09:29:47;;;;;;;1.23;0.65;;;22.30;31.50;;;;;;4980958;28;20034;-78
2021/04/13 09:32:26;;;;;;;0.85;0.52;;;22.30;31.50;;;;;;4973291;28;20034;-78
2021/04/13 09:35:06;;;;;;;0.30;0.30;;;22.30;31.50;;;;;;4992294;28;20113;-77
2021/04/13 09:37:45;;;;;;;4.40;0.65;;;22.30;31.50;;;;;;4997951;28;20109;-78
2021/04/13 09:40:47;;;;;;;0.68;0.50;;;22.30;31.50;;;;;;4996865;28;20025;-78
2021/04/13 09:43:50;;;;;;;0.80;0.47;;;22.30;31.60;;;;;;4990665;28;20085;-78
2021/04/13 09:46:22;;;;;;;0.52;0.30;;;22.30;31.60;;;;;;4972227;28;20027;-78
2021/04/13 09:49:13;;;;;;;1.55;0.50;;;22.20;31.50;;;;;;4971804;28;20057;-72
2021/04/13 09:51:57;;;;;;;0.93;0.50;;;22.20;31.60;;;;;;4977493;28;20505;-73
2021/04/13 09:54:33;;;;;;;0.75;0.55;;;22.20;31.70;;;;;;4994778;28;20107;-78
2021/04/13 09:57:24;;;;;;;0.20;0.20;;;22.10;31.70;;;;;;4997739;28;20018;-78
2021/04/13 09:59:58;;;;;;;2.35;0.70;;;22.10;31.70;;;;;;4989094;28;20125;-77
2021/04/13 10:02:35;;;;;;;4.93;0.52;;;22.10;31.70;;;;;;4996321;28;20034;-77
2021/04/13 10:05:24;;;;;;;0.30;0.30;;;22.10;31.70;;;;;;4994146;28;20034;-77
2021/04/13 10:07:58;;;;;;;0.00;0.00;;;22.20;31.70;;;;;;4982840;28;20022;-77
2021/04/13 10:10:39;;;;;;;0.55;0.20;;;22.30;31.60;;;;;;4976603;28;20157;-77
2021/04/13 10:13:10;;;;;;;0.80;0.45;;;22.30;31.60;;;;;;4967853;28;20120;-77
2021/04/13 10:16:05;;;;;;;0.20;0.20;;;22.40;31.40;;;;;;4996202;28;20046;-78
2021/04/13 10:18:52;;;;;;;0.20;0.20;;;22.50;31.30;;;;;;4947672;28;20052;-72
2021/04/13 10:21:29;;;;;;;0.57;0.25;;;22.50;31.10;;;;;;4996378;28;20454;-72
2021/04/13 10:24:33;;;;;;;0.88;0.35;;;22.50;31.00;;;;;;4987650;28;20081;-73
2021/04/13 10:27:19;;;;;;;0.28;0.10;;;22.50;31.00;;;;;;4901616;29;20058;-73
2021/04/13 10:30:14;;;;;;;0.15;0.15;;;22.50;30.90;;;;;;4907925;29;20045;-78
2021/04/13 10:33:16;;;;;;;0.00;0.00;;;22.50;30.90;;;;;;4812935;29;20088;-79
2021/04/13 10:36:13;;;;;;;0.03;0.00;;;22.50;30.90;;;;;;4780166;29;20063;-78
2021/04/13 10:39:07;;;;;;;0.20;0.20;;;22.50;30.90;;;;;;4798356;29;20047;-72
2021/04/13 10:42:00;;;;;;;4.25;0.20;;;22.50;30.90;;;;;;4795424;29;20046;-72
2021/04/13 10:44:31;;;;;;;0.20;0.05;;;22.40;30.90;;;;;;4791984;29;20052;-73
2021/04/13 10:47:02;;;;;;;0.03;0.03;;;22.50;31.00;;;;;;4807710;29;20042;-72
2021/04/13 10:49:38;;;;;;;0.10;0.10;;;22.50;31.00;;;;;;4797073;29;20050;-73
2021/04/13 10:52:10;;;;;;;0.03;0.00;;;22.50;31.00;;;;;;4800918;29;20050;-72
2021/04/13 10:54:42;;;;;;;0.20;0.20;;;22.50;31.00;;;;;;4796576;29;20023;-73
2021/04/13 10:57:26;;;;;;;0.65;0.43;;;22.60;31.00;;;;;;4796601;29;20047;-73
2021/04/13 11:00:26;;;;;;;2.40;0.43;;;22.60;30.90;;;;;;4796315;29;20043;-73
2021/04/13 11:03:25;;;;;;;0.00;0.00;;;22.60;30.80;;;;;;4791527;29;20070;-73
2021/04/13 11:06:22;;;;;;;0.40;0.25;;;22.60;30.70;;;;;;4883628;29;20063;-78
2021/04/13 11:09:02;;;;;;;0.10;0.10;;;22.60;30.70;;;;;;4890645;29;20116;-78
2021/04/13 11:11:53;;;;;;;0.10;0.10;;;22.60;30.60;;;;;;4943698;28;20039;-78
2021/04/13 11:14:53;;;;;;;0.00;0.00;;;22.50;30.70;;;;;;4978826;28;20441;-76
2021/04/13 11:17:33;;;;;;;0.80;0.30;;;22.50;30.80;;;;;;4982451;28;20614;-78
2021/04/13 11:20:13;;;;;;;1.65;0.30;;;22.50;30.80;;;;;;4994041;28;20033;-77
2021/04/13 11:23:05;;;;;;;0.63;0.40;;;22.50;30.80;;;;;;4981015;28;20026;-72
2021/04/13 11:26:25;;;;;;;0.00;0.00;;;22.50;30.90;;;;;;4965153;28;20031;-72
2021/04/13 11:29:47;;;;;;;0.10;0.10;;;22.50;30.80;;;;;;4917372;29;20028;-72
2021/04/13 11:32:32;;;;;;;0.00;0.00;;;22.60;30.70;;;;;;4868375;29;20037;-72
2021/04/13 11:35:13;;;;;;;0.75;0.40;;;22.70;30.70;;;;;;4886875;29;20116;-72
2021/04/13 11:37:57;;;;;;;1.05;0.28;;;22.70;30.70;;;;;;4866418;29;20088;-72
2021/04/13 11:40:48;;;;;;;4.40;0.17;;;22.70;30.50;;;;;;4856933;29;20179;-72
2021/04/13 11:43:15;;;;;;;0.00;0.00;;;22.80;30.50;;;;;;4860120;29;20139;-72
2021/04/13 11:45:51;;;;;;;0.47;0.30;;;22.80;30.40;;;;;;4836833;29;20521;-72
2021/04/13 11:48:19;;;;;;;;;;;22.80;30.30;;;;;;4864150;29;20057;-77
2021/04/13 11:51:02;;;;;;;1.00;0.60;;;22.90;30.20;;;;;;4866959;29;20384;-77
2021/04/13 11:53:42;;;;;;;0.20;0.10;;;22.90;30.10;;;;;;4843775;29;20037;-77
2021/04/13 11:56:22;;;;;;;0.63;0.20;;;23.00;30.00;;;;;;4867928;29;20068;-77
2021/04/13 11:59:36;;;;;;;0.00;0.00;;;23.00;30.00;;;;;;4861520;29;20033;-77
2021/04/13 12:02:21;;;;;;;1.75;0.10;;;23.10;30.00;;;;;;4894512;28;20188;-78
2021/04/13 12:04:50;;;;;;;0.03;0.03;;;23.10;29.90;;;;;;4969672;28;20165;-78
2021/04/13 12:07:41;;;;;;;0.20;0.20;;;23.20;29.80;;;;;;4973592;28;20270;-78
2021/04/13 12:10:10;;;;;;;0.10;0.10;;;23.20;29.80;;;;;;5005263;28;20025;-78
2021/04/13 12:12:35;;;;;;;0.00;0.00;;;23.30;29.70;;;;;;4998170;28;20014;-78
2021/04/13 12:15:07;;;;;;;0.10;0.10;;;23.30;29.70;;;;;;5008655;28;20040;-78
2021/04/13 12:17:39;;;;;;;0.98;0.17;;;23.40;29.60;;;;;;4992109;28;20041;-78
2021/04/13 12:20:20;;;;;;;0.43;0.38;;;23.40;29.50;;;;;;4975458;28;20157;-78
2021/04/13 12:26:08;;;;;;;0.10;0.10;;;23.40;29.40;;;;;;4995009;28;20049;-78
2021/04/13 12:28:49;;;;;;;0.00;0.00;;;23.40;29.40;;;;;;4976025;28;20034;-78
2021/04/13 12:31:23;;;;;;;0.00;0.00;;;23.30;29.30;;;;;;4993817;28;20028;-78
2021/04/13 12:34:06;;;;;;;0.17;0.17;;;23.30;29.20;;;;;;4971973;28;20033;-79
2021/04/13 12:36:52;;;;;;;0.43;0.22;;;23.30;29.10;;;;;;4991593;28;20037;-78
2021/04/13 12:39:48;;;;;;;0.10;0.00;;;23.30;29.10;;;;;;4960131;28;20109;-79
2021/04/13 12:42:40;;;;;;;0.10;0.10;;;23.30;29.10;;;;;;4972468;28;20042;-78
2021/04/13 12:45:18;;;;;;;0.10;0.10;;;23.20;29.10;;;;;;4977982;28;20038;-78
2021/04/13 12:47:45;;;;;;;0.52;0.32;;;23.20;29.10;;;;;;4993613;28;20049;-78
2021/04/13 12:50:32;;;;;;;0.00;0.00;;;23.20;29.10;;;;;;4973861;28;20038;-78
2021/04/13 12:53:15;;;;;;;0.00;0.00;;;23.10;29.20;;;;;;4977841;28;20034;-78
2021/04/13 12:55:41;;;;;;;0.10;0.10;;;23.20;29.20;;;;;;4979543;28;20535;-78
2021/04/13 12:58:14;;;;;;;0.17;0.17;;;23.20;29.10;;;;;;4975448;28;20042;-78
2021/04/13 13:00:44;;;;;;;0.00;0.00;;;23.30;29.00;;;;;;4980847;28;20037;-78
2021/04/13 13:03:23;;;;;;;0.43;0.10;;;23.40;28.90;;;;;;4964308;28;20084;-78
2021/04/13 13:05:50;;;;;;;0.60;0.47;;;23.40;28.80;;;;;;4955718;28;20038;-74
2021/04/13 13:08:21;;;;;;;0.00;0.00;;;23.50;28.70;;;;;;4976008;28;20046;-73
2021/04/13 13:10:49;;;;;;;0.08;0.08;;;23.60;28.60;;;;;;5010371;28;20041;-73
2021/04/13 13:13:29;;;;;;;0.00;0.00;;;23.60;28.40;;;;;;4977171;28;20077;-73
2021/04/13 13:15:55;;;;;;;0.38;0.20;;;23.80;28.30;;;;;;4989342;28;20022;-73
2021/04/13 13:18:30;;;;;;;0.05;0.05;;;23.90;28.10;;;;;;4990555;28;20046;-73
2021/04/13 13:20:57;;;;;;;0.68;0.10;;;24.00;28.00;;;;;;4992954;28;20026;-73
2021/04/13 13:23:35;;;;;;;0.03;0.03;;;24.10;27.80;;;;;;4981530;28;20424;-73
2021/04/13 13:26:15;;;;;;;0.10;0.10;;;24.20;27.60;;;;;;4973264;28;20054;-72
2021/04/13 13:28:42;;;;;;;0.57;0.25;;;24.30;27.60;;;;;;4993217;28;20027;-72
2021/04/13 13:31:08;;;;;;;0.20;0.20;;;24.30;27.50;;;;;;4992313;28;20054;-73
2021/04/13 13:33:34;;;;;;;1.80;0.25;;;24.30;27.40;;;;;;4989071;28;20030;-78
2021/04/13 13:35:59;;;;;;;0.90;0.60;;;24.30;27.30;;;;;;4992503;28;20026;-78
2021/04/13 13:38:25;;;;;;;1.00;0.10;;;24.30;27.30;;;;;;4960593;28;20065;-78
2021/04/13 13:40:50;;;;;;;0.13;0.13;;;24.20;27.40;;;;;;4975493;28;20437;-79
2021/04/13 13:43:22;;;;;;;0.03;0.03;;;24.10;27.40;;;;;;4968056;28;20125;-78
2021/04/13 13:45:48;;;;;;;0.17;0.17;;;24.00;27.50;;;;;;4974194;28;20581;-78
2021/04/13 13:48:24;;;;;;;0.00;0.00;;;24.00;28.10;;;;;;4974205;28;20041;-78
2021/04/13 13:51:03;;;;;;;1.17;0.40;;;23.90;27.70;;;;;;4958159;28;20018;-78